Time;durP1;ratioP1;P1;durP2;ratioP2;P2;SDS_P1;SDS_P2;PMS_P1;PMS_P2;Temp;Humidity;BMP_temperature;BMP_pressure;BME280_temperature;BME280_humidity;BME280_pressure;Samples;Min_cycle;Max_cycle;Signal;HPM_P1;HPM_P2
2024/04/12 00:01:08;;;;;;;16.52;8.30;;;;;;;17.33;80.10;103196.81;5368313;26;20471;-46
2024/04/12 00:03:36;;;;;;;16.42;7.60;;;;;;;17.78;78.65;103189.03;5368708;26;20437;-47
2024/04/12 00:06:05;;;;;;;14.85;7.72;;;;;;;17.82;78.54;103190.84;5368082;26;20024;-47
2024/04/12 00:08:34;;;;;;;15.32;7.53;;;;;;;18.04;77.58;103186.91;5369779;26;20000;-46
2024/04/12 00:11:00;;;;;;;15.48;7.68;;;;;;;17.61;78.55;103181.63;5374491;26;20000;-49
2024/04/12 00:13:31;;;;;;;13.55;7.10;;;;;;;17.75;78.63;103181.03;5373840;26;20015;-44
2024/04/12 00:16:03;;;;;;;12.23;7.13;;;;;;;17.67;79.06;103177.38;5372295;26;20008;-50
2024/04/12 00:18:28;;;;;;;13.13;6.95;;;;;;;17.88;78.07;103182.16;5371756;26;20035;-42
2024/04/12 00:21:01;;;;;;;13.90;7.25;;;;;;;17.58;79.58;103173.59;5373953;26;20012;-48
2024/04/12 00:23:34;;;;;;;11.73;7.50;;;;;;;17.96;77.70;103163.84;5372243;26;19996;-47
2024/04/12 00:26:02;;;;;;;12.95;7.38;;;;;;;17.85;77.46;103163.66;5371499;26;19996;-49
2024/04/12 00:28:30;;;;;;;12.75;7.63;;;;;;;17.48;79.29;103159.34;5370277;26;19996;-45
2024/04/12 00:30:59;;;;;;;13.45;7.30;;;;;;;17.84;78.34;103153.97;5372358;26;20469;-47
2024/04/12 00:33:31;;;;;;;15.02;8.25;;;;;;;17.68;78.64;103159.78;5371454;26;20012;-46
2024/04/12 00:36:08;;;;;;;12.90;7.63;;;;;;;17.55;78.71;103155.09;5371065;26;20000;-47
2024/04/12 00:38:38;;;;;;;14.60;8.32;;;;;;;18.00;77.43;103155.13;5370600;26;20073;-50
2024/04/12 00:41:11;;;;;;;13.90;8.27;;;;;;;17.93;77.55;103145.34;5373732;26;20003;-45
2024/04/12 00:43:48;;;;;;;15.48;8.90;;;;;;;17.17;80.14;103144.59;5373727;26;19996;-44
2024/04/12 00:46:23;;;;;;;14.70;8.85;;;;;;;17.60;79.16;103154.34;5371842;26;20102;-45
2024/04/12 00:48:52;;;;;;;13.88;8.57;;;;;;;18.04;77.38;103143.78;5371616;26;20472;-47
2024/04/12 00:51:18;;;;;;;15.10;8.85;;;;;;;17.69;78.36;103127.25;5369946;26;20012;-44
2024/04/12 00:53:46;;;;;;;15.73;9.23;;;;;;;17.60;78.84;103130.63;5370901;26;20007;-44
2024/04/12 00:56:13;;;;;;;15.25;8.68;;;;;;;17.94;77.47;103124.22;5370744;26;20012;-45
2024/04/12 00:58:41;;;;;;;16.52;9.55;;;;;;;17.40;79.42;103122.25;5371639;26;20077;-49
2024/04/12 01:01:15;;;;;;;16.60;9.75;;;;;;;17.57;79.13;103122.59;5372036;26;19996;-45
2024/04/12 01:03:54;;;;;;;17.90;9.85;;;;;;;17.58;78.92;103116.47;5369349;26;20000;-46
2024/04/12 01:06:29;;;;;;;15.35;9.25;;;;;;;17.69;78.55;103116.69;5370917;26;20008;-47
2024/04/12 01:09:10;;;;;;;16.80;9.38;;;;;;;17.76;78.50;103121.25;5371672;26;20035;-44
2024/04/12 01:11:36;;;;;;;15.63;9.02;;;;;;;17.61;78.94;103129.75;5372596;26;20021;-46
2024/04/12 01:14:02;;;;;;;14.48;9.13;;;;;;;17.67;78.75;103124.63;5373957;26;20019;-46
2024/04/12 01:16:27;;;;;;;16.30;9.43;;;;;;;17.50;78.88;103136.53;5370556;26;20004;-48
2024/04/12 01:18:55;;;;;;;15.27;8.75;;;;;;;17.74;78.28;103142.34;5370453;26;20107;-46
2024/04/12 01:21:23;;;;;;;14.50;8.45;;;;;;;17.68;79.05;103136.06;5370165;26;20000;-44
2024/04/12 01:23:53;;;;;;;14.50;8.55;;;;;;;17.85;78.13;103132.00;5372558;26;20066;-47
2024/04/12 01:26:20;;;;;;;14.68;8.30;;;;;;;17.73;78.50;103124.72;5370033;26;20083;-45
2024/04/12 01:28:48;;;;;;;13.13;8.18;;;;;;;17.50;79.32;103111.91;5370526;26;20004;-44
2024/04/12 01:31:17;;;;;;;13.43;8.20;;;;;;;17.96;77.13;103111.06;5373901;26;20012;-44
2024/04/12 01:33:49;;;;;;;13.80;8.32;;;;;;;17.90;77.49;103108.31;5372883;26;19997;-44
2024/04/12 01:36:22;;;;;;;15.95;8.48;;;;;;;17.68;78.69;103109.69;5371311;26;20027;-44
2024/04/12 01:38:57;;;;;;;17.02;8.68;;;;;;;17.87;78.00;103118.84;5370135;26;20447;-44
2024/04/12 01:41:23;;;;;;;12.77;8.35;;;;;;;17.71;78.24;103115.00;5339850;26;20004;-49
2024/04/12 01:43:52;;;;;;;15.10;8.43;;;;;;;17.67;79.16;103114.06;5371204;26;20494;-49
2024/04/12 01:46:27;;;;;;;14.70;8.70;;;;;;;17.36;79.74;103112.50;5369678;26;20059;-52
2024/04/12 01:48:57;;;;;;;15.23;8.20;;;;;;;17.78;78.58;103112.50;5369246;26;20077;-50
2024/04/12 01:51:24;;;;;;;13.60;8.32;;;;;;;17.80;77.87;103113.44;5370267;26;19992;-46
2024/04/12 01:53:54;;;;;;;16.63;8.35;;;;;;;17.80;77.78;103123.09;5370040;26;20022;-45
2024/04/12 01:56:22;;;;;;;13.77;8.27;;;;;;;17.95;77.67;103122.50;5370169;26;20015;-45
2024/04/12 01:58:48;;;;;;;13.90;8.13;;;;;;;17.93;77.77;103117.16;5370567;26;20004;-48
2024/04/12 02:01:15;;;;;;;16.08;8.68;;;;;;;17.71;78.28;103107.97;5370986;26;20217;-48
2024/04/12 02:03:42;;;;;;;17.00;8.77;;;;;;;17.61;79.04;103118.31;5369262;26;20024;-46
2024/04/12 02:06:08;;;;;;;16.38;8.80;;;;;;;17.50;79.76;103114.56;5370832;26;20015;-47
2024/04/12 02:08:35;;;;;;;15.38;8.63;;;;;;;17.44;79.63;103117.97;5369874;26;20656;-49
2024/04/12 02:11:05;;;;;;;15.02;8.25;;;;;;;17.67;79.29;103121.97;5370784;26;20037;-46
2024/04/12 02:13:35;;;;;;;19.20;9.20;;;;;;;17.37;80.27;103121.31;5370646;26;20008;-50
2024/04/12 02:16:02;;;;;;;20.00;9.65;;;;;;;17.63;79.72;103117.47;5370925;26;20019;-46
2024/04/12 02:18:32;;;;;;;18.48;9.48;;;;;;;17.62;79.53;103122.75;5369191;26;20007;-46
2024/04/12 02:21:04;;;;;;;19.85;9.82;;;;;;;17.59;80.38;103120.00;5369360;26;20358;-47
2024/04/12 02:23:33;;;;;;;20.33;9.52;;;;;;;17.63;79.66;103122.75;5368918;26;20006;-44
2024/04/12 02:26:00;;;;;;;18.02;9.43;;;;;;;17.88;78.53;103116.19;5369891;26;20011;-45
2024/04/12 02:28:29;;;;;;;21.45;10.75;;;;;;;17.72;79.22;103103.59;5371122;26;20015;-45
2024/04/12 02:30:57;;;;;;;22.50;10.48;;;;;;;17.59;79.65;103101.53;5368842;26;20001;-45
2024/04/12 02:33:30;;;;;;;19.67;10.02;;;;;;;17.66;79.18;103095.56;5370162;26;20448;-49
2024/04/12 02:36:12;;;;;;;22.65;10.68;;;;;;;17.91;78.78;103089.00;5369757;26;20354;-45
2024/04/12 02:38:39;;;;;;;20.88;9.80;;;;;;;18.00;77.98;103095.31;5368227;26;20004;-47
2024/04/12 02:41:06;;;;;;;22.35;10.45;;;;;;;17.76;78.59;103094.84;5369697;26;19996;-48
2024/04/12 02:43:32;;;;;;;19.67;10.13;;;;;;;17.75;79.01;103101.00;5338587;26;20446;-44
2024/04/12 02:45:58;;;;;;;21.88;10.32;;;;;;;17.65;79.37;103104.31;5369644;26;20016;-44
2024/04/12 02:48:24;;;;;;;20.33;10.25;;;;;;;17.64;79.55;103102.53;5369942;26;20074;-44
2024/04/12 02:50:54;;;;;;;19.50;9.90;;;;;;;17.77;79.42;103102.81;5370530;26;20004;-46
2024/04/12 02:53:24;;;;;;;21.23;10.18;;;;;;;18.04;78.15;103104.19;5369315;26;19993;-45
2024/04/12 02:56:08;;;;;;;21.25;9.75;;;;;;;17.49;80.59;103103.09;5369014;26;20000;-46
2024/04/12 02:58:44;;;;;;;19.30;9.00;;;;;;;17.56;80.15;103098.84;5367315;26;20000;-45
2024/04/12 03:01:17;;;;;;;20.05;8.90;;;;;;;17.75;79.30;103093.06;5369961;26;19996;-48
2024/04/12 03:03:54;;;;;;;19.10;8.82;;;;;;;17.46;80.40;103089.84;5367206;26;20078;-45
2024/04/12 03:06:24;;;;;;;18.90;8.05;;;;;;;17.76;79.66;103086.94;5368280;26;20011;-48
2024/04/12 03:08:52;;;;;;;18.77;8.52;;;;;;;17.71;79.45;103085.97;5370226;26;20447;-46
2024/04/12 03:11:22;;;;;;;17.75;8.77;;;;;;;17.83;78.78;103086.19;5368875;26;19996;-47
2024/04/12 03:13:52;;;;;;;15.27;8.05;;;;;;;17.95;78.09;103088.19;5369788;26;20011;-43
2024/04/12 03:16:19;;;;;;;13.75;8.00;;;;;;;17.94;78.06;103074.09;5366469;26;20012;-44
2024/04/12 03:18:46;;;;;;;15.13;7.63;;;;;;;17.98;77.94;103072.41;5370091;26;20035;-45
2024/04/12 03:21:15;;;;;;;16.85;8.35;;;;;;;17.82;78.89;103073.88;5370115;26;20012;-44
2024/04/12 03:23:44;;;;;;;16.83;8.23;;;;;;;17.56;79.97;103076.00;5369234;26;19996;-47
2024/04/12 03:26:14;;;;;;;15.52;7.95;;;;;;;17.29;79.99;103078.97;5369516;26;20011;-44
2024/04/12 03:28:41;;;;;;;15.88;8.25;;;;;;;17.65;79.03;103075.31;5369216;26;20018;-45
2024/04/12 03:31:07;;;;;;;17.15;8.10;;;;;;;17.15;80.77;103082.16;5370547;26;20343;-44
2024/04/12 03:33:43;;;;;;;15.02;8.25;;;;;;;17.30;81.01;103072.84;5370750;26;20019;-48
2024/04/12 03:41:56;;;;;;;16.00;7.43;;;;;;;17.39;79.35;103065.09;5368990;26;20004;-45
2024/04/12 03:44:22;;;;;;;13.73;7.10;;;;;;;17.60;78.40;103062.03;5371676;26;20111;-43
2024/04/12 03:46:51;;;;;;;13.38;7.80;;;;;;;17.48;78.79;103059.13;5371109;26;20424;-49
2024/04/12 03:49:20;;;;;;;16.48;7.38;;;;;;;17.42;79.01;103066.91;5371125;26;20007;-47
2024/04/12 03:51:48;;;;;;;14.73;7.35;;;;;;;17.51;78.54;103060.91;5373606;26;20008;-46
2024/04/12 03:54:17;;;;;;;13.23;7.43;;;;;;;17.63;78.65;103067.34;5372424;26;20012;-47
2024/04/12 03:56:52;;;;;;;12.80;7.35;;;;;;;17.48;78.77;103077.59;5369716;26;19997;-48
2024/04/12 03:59:23;;;;;;;12.13;7.30;;;;;;;17.31;78.93;103064.06;5371390;26;20714;-44
2024/04/12 04:01:50;;;;;;;12.85;7.55;;;;;;;17.60;78.16;103069.03;5342158;26;20001;-44
2024/04/12 04:04:19;;;;;;;11.90;7.43;;;;;;;17.11;79.73;103064.50;5374467;26;20991;-43
2024/04/12 04:06:46;;;;;;;12.48;7.22;;;;;;;17.15;80.21;103061.97;5374706;26;20379;-51
2024/04/12 04:09:13;;;;;;;14.75;8.13;;;;;;;17.19;79.82;103057.66;5375291;26;20012;-44
2024/04/12 04:11:42;;;;;;;12.85;7.40;;;;;;;17.45;79.40;103059.06;5374710;26;20001;-47
2024/04/12 04:14:09;;;;;;;15.98;7.70;;;;;;;17.37;78.91;103063.31;5374695;26;20000;-45
2024/04/12 04:16:38;;;;;;;12.95;7.20;;;;;;;17.30;79.82;103067.56;5371204;26;19996;-46
2024/04/12 04:19:03;;;;;;;11.98;7.38;;;;;;;17.39;79.22;103049.28;5371748;26;20043;-45
2024/04/12 04:21:33;;;;;;;13.45;6.97;;;;;;;17.56;77.76;103054.91;5371701;26;20004;-48
2024/04/12 04:24:08;;;;;;;13.20;7.00;;;;;;;17.73;77.19;103053.50;5371889;26;20074;-43
2024/04/12 04:26:40;;;;;;;12.45;6.88;;;;;;;17.44;78.16;103055.53;5371728;26;20040;-44
2024/04/12 04:29:12;;;;;;;12.82;6.93;;;;;;;17.34;78.94;103053.56;5374035;26;20069;-46
2024/04/12 04:31:47;;;;;;;11.73;6.57;;;;;;;17.52;78.02;103050.41;5374195;26;20051;-47
2024/04/12 04:34:13;;;;;;;12.20;6.50;;;;;;;17.21;79.66;103048.91;5375237;26;20015;-46
2024/04/12 04:36:43;;;;;;;10.95;6.47;;;;;;;17.34;78.16;103043.03;5373842;26;20001;-50
2024/04/12 04:39:15;;;;;;;11.23;6.30;;;;;;;17.32;78.58;103046.50;5374778;26;20348;-44
2024/04/12 04:41:43;;;;;;;15.20;7.00;;;;;;;17.39;78.47;103048.38;5373551;26;20007;-44
2024/04/12 04:44:09;;;;;;;12.43;6.63;;;;;;;17.33;77.92;103049.16;5373729;26;19996;-44
2024/04/12 04:46:34;;;;;;;14.43;6.68;;;;;;;17.43;77.28;103044.97;5341824;26;20027;-44
2024/04/12 04:48:59;;;;;;;10.90;6.60;;;;;;;17.59;76.53;103044.41;5372330;26;20026;-45
2024/04/12 04:51:25;;;;;;;11.93;6.45;;;;;;;17.34;77.23;103042.13;5371623;26;20012;-45
2024/04/12 04:53:53;;;;;;;12.48;6.35;;;;;;;17.57;76.69;103043.47;5372685;26;20000;-45
2024/04/12 04:56:24;;;;;;;11.18;6.00;;;;;;;17.48;76.13;103035.41;5373206;26;19996;-45
2024/04/12 04:58:53;;;;;;;10.77;6.18;;;;;;;17.61;76.00;103031.28;5373756;26;20004;-43
2024/04/12 05:01:18;;;;;;;11.82;6.28;;;;;;;17.55;75.41;103026.75;5371879;26;20442;-51
2024/04/12 05:03:49;;;;;;;13.27;6.45;;;;;;;17.49;75.83;103026.63;5372879;26;20006;-48
2024/04/12 05:06:24;;;;;;;11.93;6.40;;;;;;;17.47;75.31;103030.09;5372658;26;19992;-44
2024/04/12 05:08:55;;;;;;;14.68;6.50;;;;;;;17.53;75.76;103032.84;5373290;26;19996;-45
2024/04/12 05:11:21;;;;;;;12.20;6.72;;;;;;;17.71;74.90;103014.75;5373698;26;20011;-45
2024/04/12 05:13:49;;;;;;;13.48;6.63;;;;;;;17.60;75.30;103026.81;5371572;26;19996;-46
2024/04/12 05:16:19;;;;;;;12.63;6.90;;;;;;;17.59;75.79;103027.69;5372385;26;20496;-49
2024/04/12 05:18:53;;;;;;;15.98;6.97;;;;;;;17.49;75.92;103024.00;5370761;26;20008;-46
2024/04/12 05:21:23;;;;;;;17.55;7.45;;;;;;;17.30;77.54;103020.09;5370855;26;19996;-46
2024/04/12 05:23:51;;;;;;;14.95;7.18;;;;;;;17.41;77.12;103020.31;5370975;26;20442;-46
2024/04/12 05:26:17;;;;;;;13.75;7.03;;;;;;;17.43;76.84;103021.25;5370261;26;20000;-44
2024/04/12 05:28:43;;;;;;;14.68;7.03;;;;;;;17.50;76.77;103027.53;5371540;26;20015;-45
2024/04/12 05:31:12;;;;;;;14.80;7.07;;;;;;;17.67;75.95;103023.47;5372983;26;20087;-44
2024/04/12 05:33:43;;;;;;;13.60;7.05;;;;;;;17.67;76.57;103020.84;5373493;26;20081;-45
2024/04/12 05:36:09;;;;;;;12.02;6.82;;;;;;;17.69;76.13;103024.38;5372332;26;20007;-49
2024/04/12 05:38:36;;;;;;;11.15;7.20;;;;;;;17.81;75.30;103025.47;5370082;26;19996;-46
2024/04/12 05:41:04;;;;;;;12.25;6.70;;;;;;;17.84;75.58;103022.91;5371311;26;19996;-49
2024/04/12 05:43:30;;;;;;;14.43;6.78;;;;;;;17.76;75.02;103026.25;5371233;26;20081;-44
2024/04/12 05:45:55;;;;;;;15.35;7.03;;;;;;;17.89;75.13;103033.53;5370496;26;20012;-45
2024/04/12 05:48:22;;;;;;;14.07;7.07;;;;;;;17.75;74.61;103040.31;5369940;26;20000;-48
2024/04/12 05:50:48;;;;;;;14.43;7.20;;;;;;;17.77;75.05;103042.13;5370322;26;20015;-45
2024/04/12 05:53:18;;;;;;;13.68;7.10;;;;;;;17.79;75.13;103050.09;5371137;26;20004;-47
2024/04/12 05:55:44;;;;;;;19.13;7.18;;;;;;;17.92;74.33;103064.38;5370662;26;19992;-47
2024/04/12 05:58:14;;;;;;;13.43;6.82;;;;;;;17.97;75.04;103055.69;5370855;26;20089;-46
2024/04/12 06:00:48;;;;;;;12.48;7.38;;;;;;;17.86;75.26;103059.00;5369978;26;20023;-47
2024/04/12 06:03:14;;;;;;;;;;;;;;;18.06;74.29;103058.47;5370768;26;19996;-49
2024/04/12 06:05:43;;;;;;;13.48;6.88;;;;;;;18.16;74.06;103052.50;5368806;26;19926;-47
2024/04/12 06:08:15;;;;;;;14.57;7.25;;;;;;;17.71;74.79;103063.13;5372548;26;19996;-44
2024/04/12 06:10:46;;;;;;;12.85;6.60;;;;;;;18.38;72.83;103066.03;5370326;26;20000;-47
2024/04/12 06:13:12;;;;;;;14.43;6.80;;;;;;;18.49;71.66;103073.25;5370445;26;19996;-46
2024/04/12 06:15:38;;;;;;;14.93;7.03;;;;;;;18.29;71.78;103064.16;5370293;26;19996;-47
2024/04/12 06:18:10;;;;;;;11.27;6.45;;;;;;;18.29;72.06;103063.25;5371668;26;20917;-45
2024/04/12 06:20:36;;;;;;;12.20;6.60;;;;;;;18.11;71.89;103059.44;5370227;26;20470;-49
2024/04/12 06:23:09;;;;;;;17.40;7.20;;;;;;;18.44;70.38;103055.56;5370697;26;20541;-49
2024/04/12 06:25:38;;;;;;;13.82;6.82;;;;;;;18.24;71.64;103056.13;5369197;26;19997;-46
2024/04/12 06:28:11;;;;;;;14.60;7.03;;;;;;;18.54;70.63;103053.09;5370238;26;19996;-44
2024/04/12 06:30:41;;;;;;;13.65;7.18;;;;;;;18.48;69.98;103041.56;5368368;26;20030;-45
2024/04/12 06:33:07;;;;;;;12.52;6.75;;;;;;;18.59;68.97;103054.09;5371047;26;20680;-46
2024/04/12 06:35:32;;;;;;;12.88;6.43;;;;;;;18.50;69.25;103053.03;5369673;26;20120;-48
2024/04/12 06:37:58;;;;;;;14.02;6.55;;;;;;;19.30;68.71;103058.56;5370029;26;20015;-47
2024/04/12 06:40:28;;;;;;;12.93;7.00;;;;;;;19.66;66.51;103052.84;5369575;26;20008;-44
2024/04/12 06:43:05;;;;;;;17.40;6.35;;;;;;;19.62;65.71;103059.88;5369727;26;20043;-53
2024/04/12 06:45:41;;;;;;;13.13;6.07;;;;;;;19.57;65.26;103058.03;5368643;26;20053;-45
2024/04/12 06:48:19;;;;;;;12.40;6.15;;;;;;;19.32;66.06;103052.44;5369992;26;20014;-48
2024/04/12 06:50:55;;;;;;;11.70;5.80;;;;;;;19.64;66.42;103058.09;5370643;26;20028;-49
2024/04/12 06:53:21;;;;;;;12.75;6.07;;;;;;;20.11;63.54;103060.34;5339665;26;19992;-47
2024/04/12 06:55:49;;;;;;;14.60;6.00;;;;;;;20.02;62.50;103058.47;5370219;26;20001;-50
2024/04/12 06:58:17;;;;;;;14.13;5.68;;;;;;;20.52;61.36;103065.97;5367112;26;20011;-45
2024/04/12 07:00:43;;;;;;;11.43;5.20;;;;;;;20.83;59.98;103054.69;5370494;26;19996;-45
2024/04/12 07:03:15;;;;;;;11.02;5.68;;;;;;;21.82;55.68;103053.31;5369951;26;20001;-47
2024/04/12 07:05:47;;;;;;;10.15;5.35;;;;;;;21.10;56.80;103050.41;5366238;26;20032;-46
2024/04/12 07:08:16;;;;;;;10.75;5.20;;;;;;;21.20;58.60;103062.88;5367491;26;20011;-45
2024/04/12 07:10:41;;;;;;;11.45;4.95;;;;;;;21.45;56.32;103062.97;5369898;26;20006;-46
2024/04/12 07:13:07;;;;;;;10.52;5.20;;;;;;;21.05;56.60;103056.56;5368802;26;20004;-45
2024/04/12 07:15:33;;;;;;;10.65;5.00;;;;;;;21.34;54.81;103053.19;5335799;26;20721;-44
2024/04/12 07:18:02;;;;;;;9.18;4.68;;;;;;;21.05;55.64;103060.97;5309453;26;20004;-45
2024/04/12 07:20:33;;;;;;;7.80;4.40;;;;;;;21.32;56.28;103058.50;5341004;26;21250;-46
2024/04/12 07:22:58;;;;;;;8.82;4.57;;;;;;;22.34;52.33;103071.06;5373923;26;20070;-50
2024/04/12 07:25:24;;;;;;;7.72;3.90;;;;;;;23.06;49.30;103064.72;5373115;26;20004;-44
2024/04/12 07:27:53;;;;;;;7.78;3.72;;;;;;;22.74;49.84;103067.50;5372667;26;20007;-45
2024/04/12 07:30:20;;;;;;;8.80;4.05;;;;;;;22.34;49.52;103069.28;5339840;26;20008;-47
2024/04/12 07:32:46;;;;;;;6.57;3.83;;;;;;;21.81;49.43;103071.88;5371704;26;20412;-44
2024/04/12 07:35:25;;;;;;;7.97;3.92;;;;;;;21.18;51.84;103068.16;5371431;26;20027;-47
2024/04/12 07:37:59;;;;;;;10.68;3.95;;;;;;;21.04;52.66;103070.69;5373109;26;20041;-45
2024/04/12 07:40:30;;;;;;;7.90;3.95;;;;;;;21.22;51.54;103074.38;5372893;26;19996;-50
2024/04/12 07:42:57;;;;;;;7.32;3.53;;;;;;;21.63;50.25;103074.50;5371794;26;20058;-48
2024/04/12 07:45:24;;;;;;;6.68;3.58;;;;;;;21.42;50.50;103085.94;5371202;26;20047;-50
2024/04/12 07:47:54;;;;;;;8.23;3.50;;;;;;;21.53;50.70;103081.53;5371638;26;19996;-51
2024/04/12 07:50:21;;;;;;;10.02;3.45;;;;;;;21.33;50.72;103081.50;5371486;26;20004;-47
2024/04/12 07:52:50;;;;;;;7.47;3.80;;;;;;;20.70;53.05;103082.00;5372377;26;20012;-48
2024/04/12 07:55:23;;;;;;;6.80;3.40;;;;;;;21.26;52.37;103076.16;5372494;26;20032;-50
2024/04/12 07:57:52;;;;;;;7.88;3.20;;;;;;;20.98;52.59;103091.88;5371849;26;20000;-48
2024/04/12 08:00:36;;;;;;;9.15;3.75;;;;;;;20.44;54.42;103084.47;5371923;26;20508;-53
2024/04/12 08:03:06;;;;;;;9.48;3.83;;;;;;;20.41;54.50;103086.22;5372404;26;19992;-48
2024/04/12 08:05:42;;;;;;;7.78;3.58;;;;;;;20.02;55.34;103084.97;5370693;26;20000;-48
2024/04/12 08:08:14;;;;;;;9.43;4.00;;;;;;;19.97;56.29;103068.16;5372822;26;20011;-51
2024/04/12 08:10:41;;;;;;;8.73;3.63;;;;;;;19.94;56.12;103076.06;5371582;26;20039;-44
2024/04/12 08:13:10;;;;;;;7.80;3.72;;;;;;;20.30;55.35;103078.16;5372468;26;20319;-49
2024/04/12 08:15:40;;;;;;;8.00;3.30;;;;;;;20.11;55.59;103068.28;5371000;26;20003;-44
2024/04/12 08:18:06;;;;;;;8.10;3.22;;;;;;;20.20;55.45;103077.19;5371800;26;20016;-45
2024/04/12 08:20:39;;;;;;;10.70;3.28;;;;;;;19.89;56.42;103076.88;5370922;26;19997;-44
2024/04/12 08:23:05;;;;;;;7.55;3.22;;;;;;;19.85;57.63;103083.91;5372434;26;20028;-44
2024/04/12 08:25:33;;;;;;;5.30;3.00;;;;;;;20.19;56.82;103075.41;5370515;26;20040;-44
2024/04/12 08:27:58;;;;;;;12.30;2.72;;;;;;;20.38;56.70;103076.47;5370835;26;20074;-45
2024/04/12 08:30:28;;;;;;;7.57;3.00;;;;;;;20.11;57.09;103084.16;5369685;26;20020;-44
2024/04/12 08:32:55;;;;;;;7.68;3.10;;;;;;;20.15;56.05;103085.97;5370865;26;20438;-46
2024/04/12 08:35:21;;;;;;;6.93;3.00;;;;;;;20.27;56.37;103080.75;5371014;26;20008;-48
2024/04/12 08:37:47;;;;;;;8.77;3.00;;;;;;;20.12;58.07;103078.00;5370587;26;20000;-44
2024/04/12 08:40:13;;;;;;;7.50;2.80;;;;;;;20.35;56.81;103075.56;5372099;26;20000;-48
2024/04/12 08:42:39;;;;;;;7.53;2.55;;;;;;;20.24;56.55;103067.50;5370977;26;20563;-44
2024/04/12 08:45:18;;;;;;;6.63;2.40;;;;;;;20.27;56.65;103080.75;5370874;26;20030;-46
2024/04/12 08:47:54;;;;;;;7.10;2.40;;;;;;;20.47;56.40;103076.56;5370910;26;20008;-49
2024/04/12 08:50:24;;;;;;;7.13;2.03;;;;;;;20.25;57.60;103077.22;5370076;26;19996;-49
2024/04/12 08:52:52;;;;;;;3.70;1.80;;;;;;;20.15;57.56;103080.66;5370666;26;20016;-47
2024/04/12 08:55:23;;;;;;;6.03;2.10;;;;;;;20.11;58.19;103078.88;5370868;26;20061;-47
2024/04/12 08:57:56;;;;;;;7.95;1.92;;;;;;;20.76;56.33;103086.47;5371337;26;20000;-44
2024/04/12 09:00:28;;;;;;;5.22;1.98;;;;;;;20.32;56.48;103075.50;5371163;26;19996;-45
2024/04/12 09:02:58;;;;;;;5.15;1.98;;;;;;;20.71;55.88;103080.25;5372257;26;20015;-52
2024/04/12 09:05:27;;;;;;;4.35;1.60;;;;;;;21.50;54.43;103068.28;5369983;26;20000;-46
2024/04/12 09:07:58;;;;;;;5.15;1.70;;;;;;;21.06;54.48;103074.25;5371400;26;20691;-44
2024/04/12 09:10:27;;;;;;;4.25;1.88;;;;;;;21.02;55.46;103074.25;5371115;26;20000;-45
2024/04/12 09:12:53;;;;;;;5.07;1.70;;;;;;;20.93;54.77;103076.84;5371213;26;20000;-50
2024/04/12 09:15:27;;;;;;;7.15;1.75;;;;;;;20.93;56.01;103077.72;5370272;26;20050;-48
2024/04/12 09:18:01;;;;;;;8.07;2.00;;;;;;;20.86;55.70;103078.56;5371880;26;20091;-46
2024/04/12 09:20:31;;;;;;;5.22;1.52;;;;;;;21.13;54.30;103085.78;5372324;26;20058;-48
2024/04/12 09:23:19;;;;;;;6.70;1.70;;;;;;;20.95;55.47;103088.34;5372945;26;20018;-47
2024/04/12 09:25:55;;;;;;;9.65;1.52;;;;;;;20.75;54.87;103082.91;5372376;26;20000;-44
2024/04/12 09:28:30;;;;;;;4.80;1.50;;;;;;;20.59;55.17;103079.28;5370889;26;20351;-43
2024/04/12 09:33:56;;;;;;;4.65;1.50;;;;;;;21.08;54.33;103079.59;5329518;26;20005;-44
2024/04/12 09:36:52;;;;;;;3.83;1.40;;;;;;;20.99;54.77;103068.91;5369688;26;20372;-47
2024/04/12 09:39:20;;;;;;;5.63;1.30;;;;;;;20.99;54.64;103082.16;5370229;26;20333;-44
2024/04/12 09:41:53;;;;;;;5.43;1.50;;;;;;;20.73;55.01;103094.41;5370706;26;20486;-47
2024/04/12 09:44:37;;;;;;;3.85;1.40;;;;;;;20.63;55.03;103086.38;5369752;26;20650;-47
2024/04/12 10:39:44;;;;;;;6.47;1.90;;;;;;;21.28;53.96;103098.28;5369433;26;20019;-46
2024/04/12 10:42:12;;;;;;;5.22;1.77;;;;;;;20.70;55.70;103104.97;5370140;26;20000;-43
2024/04/12 10:44:40;;;;;;;5.85;1.98;;;;;;;21.00;54.96;103106.06;5368478;26;20012;-44
2024/04/12 10:47:12;;;;;;;7.30;2.33;;;;;;;21.28;53.50;103108.91;5369013;26;20015;-44
2024/04/12 10:49:42;;;;;;;9.75;2.47;;;;;;;20.87;55.98;103098.00;5368962;26;20051;-48
2024/04/12 10:52:13;;;;;;;6.25;2.25;;;;;;;20.88;54.84;103103.31;5368694;26;20004;-45
2024/04/12 10:54:42;;;;;;;4.93;1.63;;;;;;;21.12;55.19;103099.03;5369297;26;20008;-48
2024/04/12 10:57:11;;;;;;;6.80;2.30;;;;;;;21.24;54.40;103096.47;5369672;26;20000;-44
2024/04/12 10:59:42;;;;;;;5.55;2.05;;;;;;;20.68;56.10;103104.94;5368833;26;20023;-48
2024/04/12 11:02:10;;;;;;;5.53;2.40;;;;;;;21.11;54.82;103105.22;5369151;26;20000;-50
2024/04/12 11:07:23;;;;;;;7.07;2.30;;;;;;;20.52;55.27;103103.97;5368820;26;20050;-50
2024/04/12 11:09:57;;;;;;;6.28;2.25;;;;;;;20.80;56.28;103089.13;5370557;26;20028;-45
2024/04/12 11:12:28;;;;;;;11.00;2.20;;;;;;;20.61;56.85;103095.22;5372907;26;20000;-44
2024/04/12 11:15:12;;;;;;;7.30;2.45;;;;;;;21.07;56.04;103096.38;5373120;26;19996;-47
2024/04/12 11:31:27;;;;;;;5.88;1.90;;;;;;;20.96;55.44;103080.41;5367976;26;20003;-46
2024/04/12 11:33:52;;;;;;;6.57;1.70;;;;;;;21.15;54.58;103065.50;5367717;26;20711;-47
2024/04/12 11:36:20;;;;;;;6.82;1.90;;;;;;;21.14;55.16;103066.34;5367529;26;20077;-46
2024/04/12 11:38:47;;;;;;;3.70;1.30;;;;;;;21.19;54.60;103071.69;5368472;26;20011;-45
2024/04/12 11:41:15;;;;;;;4.63;1.40;;;;;;;21.42;53.31;103070.00;5368915;26;20011;-49
2024/04/12 11:43:46;;;;;;;5.90;1.50;;;;;;;21.87;52.68;103061.28;5367736;26;20000;-45
2024/04/12 11:46:16;;;;;;;6.57;1.90;;;;;;;21.30;53.56;103069.97;5368892;26;20844;-43
2024/04/12 11:48:42;;;;;;;5.47;1.45;;;;;;;21.35;53.27;103060.25;5367227;26;20037;-45
2024/04/12 11:51:09;;;;;;;4.28;1.42;;;;;;;21.24;54.73;103064.63;5368220;26;20015;-46
2024/04/12 11:53:35;;;;;;;8.80;1.90;;;;;;;21.40;54.55;103070.03;5367185;26;20519;-44
2024/04/12 11:56:01;;;;;;;2.92;1.50;;;;;;;21.66;53.42;103069.19;5367919;26;20000;-46
2024/04/12 11:58:28;;;;;;;5.78;1.60;;;;;;;21.92;52.70;103071.91;5367546;26;20014;-44
2024/04/12 12:00:53;;;;;;;5.60;1.55;;;;;;;22.11;51.81;103076.38;5367283;26;20141;-47
2024/04/12 12:03:20;;;;;;;5.50;1.50;;;;;;;21.90;52.17;103081.63;5368205;26;20499;-47
2024/04/12 12:05:46;;;;;;;4.25;1.30;;;;;;;21.77;51.92;103067.47;5370940;26;19996;-44
2024/04/12 12:08:13;;;;;;;6.40;1.38;;;;;;;21.57;52.63;103059.47;5371115;26;19997;-48
2024/04/12 12:10:44;;;;;;;3.30;1.17;;;;;;;22.49;51.91;103056.00;5369436;26;19996;-47
2024/04/12 12:13:09;;;;;;;4.43;1.08;;;;;;;22.66;51.14;103055.97;5370871;26;20462;-46
2024/04/12 12:15:35;;;;;;;2.42;1.10;;;;;;;22.62;49.28;103055.09;5370144;26;20052;-48
2024/04/12 12:18:00;;;;;;;4.13;1.10;;;;;;;22.16;52.32;103054.25;5370442;26;19996;-50
2024/04/12 12:20:25;;;;;;;4.03;0.90;;;;;;;22.32;51.74;103056.91;5370593;26;20015;-45
2024/04/12 12:22:51;;;;;;;6.05;1.38;;;;;;;22.29;51.49;103051.56;5370959;26;20000;-45
2024/04/12 12:25:16;;;;;;;5.63;1.25;;;;;;;22.50;51.92;103052.47;5370390;26;20008;-48
2024/04/12 12:27:45;;;;;;;4.78;1.02;;;;;;;22.40;50.62;103045.34;5338909;26;19993;-50
2024/04/12 12:30:14;;;;;;;2.60;1.10;;;;;;;22.77;50.65;103046.19;5370865;26;20048;-46
2024/04/12 12:32:42;;;;;;;2.80;1.10;;;;;;;22.95;49.63;103037.28;5371421;26;20019;-45
2024/04/12 12:35:07;;;;;;;4.25;1.10;;;;;;;22.76;51.41;103035.56;5369119;26;20007;-45
2024/04/12 12:37:34;;;;;;;1.90;0.80;;;;;;;22.18;50.86;103020.59;5369801;26;20004;-50
2024/04/12 12:39:59;;;;;;;3.97;1.23;;;;;;;21.67;52.86;103040.00;5370547;26;20000;-51
2024/04/12 12:42:25;;;;;;;3.35;1.08;;;;;;;22.29;51.16;103032.97;5370454;26;20011;-49
2024/04/12 12:44:50;;;;;;;1.90;0.75;;;;;;;22.01;52.58;103035.66;5370893;26;20344;-48
2024/04/12 12:47:20;;;;;;;2.58;1.17;;;;;;;21.98;51.92;103038.28;5370245;26;20000;-48